»·PEaware :: FDX1850 KAST-F62

FDX1850 :: KAST-F62

FLIGHT INFORMATION

Flight Status: Arrived
Operator:
Federal Express
More flights by this operator :: More flights under this callsign
Pilot: Jacob H. (10561)
Aircraft: BEECH AIRCRAFT BEECH AIRLINER
(B190)
More flights by this aircraft type
Origin: KAST Astoria Regl
United States
Destination: F62 Hayfork
United States
More flights between these airports :: More routes between these airports
Route: +CVO J589 RBG ENVIE
File this flight plan on PilotEdge
Remarks: PBN / D2 DOF / 170622 REG / N190SB EET / KZOA0107 OPR / FDX RMK / TCAS SIMBRIEF
Altitude:
(Current/Filed)
17,000ft
Speed:
(Current/Filed)
258kts
Departed: 21-Jun-17 06:43 PM
Arrived: 21-Jun-17 08:00 PM
Distance/Time
Traveled:
338nm/1:17
Distance/Time
To Go:
Arrived

Flight Plot

Page will automatically refresh every two minutes.

Flight plan parsing failed; only flown route is shown


Map Options




Map Legend


Flown Route
Filed Route
Departure Airport
Arrival Airport
Navaid (VOR, NDB)
Fix

Horizontal Profiles

Position Reports

Time Latitude Longitude Heading Altitude Ground
Speed
21-Jun-17 18:21 46.156091 -123.880842 242 17ft 0kts
21-Jun-17 18:22 46.156091 -123.880842 242 17ft 0kts
21-Jun-17 18:23 46.156091 -123.880842 242 17ft 0kts
21-Jun-17 18:24 46.156091 -123.880842 242 17ft 0kts
21-Jun-17 18:25 46.156091 -123.880842 242 17ft 0kts
21-Jun-17 18:26 46.156091 -123.880842 242 17ft 0kts
21-Jun-17 18:26 46.156091 -123.880842 242 17ft 0kts
21-Jun-17 18:27 46.156091 -123.880842 242 17ft 0kts
21-Jun-17 18:28 46.156091 -123.880842 242 17ft 0kts
21-Jun-17 18:29 46.156091 -123.880842 242 17ft 0kts
21-Jun-17 18:30 46.156091 -123.880842 242 17ft 0kts
21-Jun-17 18:32 46.156091 -123.880842 242 17ft 0kts
21-Jun-17 18:33 46.156091 -123.880842 242 17ft 0kts
21-Jun-17 18:34 46.156091 -123.880842 242 17ft 0kts
21-Jun-17 18:35 46.156091 -123.880842 242 17ft 0kts
21-Jun-17 18:36 46.156091 -123.880842 242 17ft 0kts
21-Jun-17 18:37 46.156091 -123.880842 242 17ft 0kts
21-Jun-17 18:38 46.156091 -123.880842 242 17ft 0kts
21-Jun-17 18:39 46.156091 -123.880842 242 17ft 0kts
21-Jun-17 18:40 46.156091 -123.880842 242 17ft 0kts
21-Jun-17 18:41 46.156091 -123.880842 242 17ft 0kts
21-Jun-17 18:42 46.156050 -123.881176 329 17ft 0kts
21-Jun-17 18:43 46.156582 -123.880372 154 17ft 19kts
21-Jun-17 18:44 46.151706 -123.876907 154 17ft 20kts
21-Jun-17 18:45 46.150434 -123.875573 90 17ft 3kts
21-Jun-17 18:46 46.167853 -123.886586 340 632ft 125kts
21-Jun-17 18:47 46.175839 -123.925746 203 2712ft 148kts
21-Jun-17 18:48 46.138139 -123.907680 163 5174ft 152kts
21-Jun-17 18:49 46.113775 -123.897631 164 6535ft 156kts
21-Jun-17 18:50 46.075315 -123.882464 164 9358ft 162kts
21-Jun-17 18:51 46.031631 -123.865539 165 12245ft 170kts
21-Jun-17 18:52 45.985506 -123.847772 165 14912ft 177kts
21-Jun-17 18:53 45.938236 -123.829735 163 16691ft 209kts
21-Jun-17 18:54 45.871553 -123.804072 163 16848ft 278kts
21-Jun-17 18:55 45.794886 -123.774809 163 16962ft 297kts
21-Jun-17 18:56 45.714245 -123.744162 163 16970ft 304kts
21-Jun-17 18:57 45.632455 -123.713160 163 16970ft 305kts
21-Jun-17 18:58 45.551102 -123.682428 163 16946ft 306kts
21-Jun-17 18:59 45.468805 -123.651438 163 16943ft 306kts
21-Jun-17 19:00 45.386681 -123.620592 163 16944ft 306kts
21-Jun-17 19:01 45.304440 -123.589807 163 16915ft 307kts
21-Jun-17 19:02 45.221990 -123.559052 163 16890ft 307kts
21-Jun-17 19:03 45.140634 -123.528782 163 16891ft 306kts
21-Jun-17 19:04 45.058073 -123.498149 163 16891ft 306kts
21-Jun-17 19:05 44.975831 -123.467725 163 16891ft 306kts
21-Jun-17 19:06 44.894890 -123.437876 163 17001ft 304kts
21-Jun-17 19:07 44.813486 -123.407939 163 16998ft 305kts
21-Jun-17 19:08 44.735999 -123.379516 163 16972ft 306kts
21-Jun-17 19:09 44.653767 -123.349449 164 16971ft 306kts
21-Jun-17 19:10 44.572695 -123.319873 164 16972ft 306kts
21-Jun-17 19:11 44.490314 -123.293562 180 16981ft 305kts
21-Jun-17 19:12 44.405304 -123.297541 181 16973ft 307kts
21-Jun-17 19:13 44.320153 -123.301452 181 16973ft 307kts
21-Jun-17 19:14 44.234716 -123.305292 181 16973ft 307kts
21-Jun-17 19:15 44.149569 -123.309136 181 16950ft 307kts
21-Jun-17 19:16 44.064548 -123.312959 181 16947ft 307kts
21-Jun-17 19:17 43.979490 -123.316750 181 16948ft 306kts
21-Jun-17 19:18 43.896225 -123.320475 181 16947ft 307kts
21-Jun-17 19:19 43.813182 -123.324163 181 16944ft 306kts
21-Jun-17 19:20 43.728209 -123.327932 181 16944ft 306kts
21-Jun-17 19:21 43.643411 -123.331688 181 16945ft 306kts
21-Jun-17 19:22 43.558366 -123.335453 181 16923ft 307kts
21-Jun-17 19:23 43.473585 -123.339183 181 16919ft 305kts
21-Jun-17 19:24 43.388727 -123.342922 181 16919ft 306kts
21-Jun-17 19:25 43.303733 -123.346637 181 16919ft 306kts
21-Jun-17 19:26 43.218552 -123.350372 181 16920ft 306kts
21-Jun-17 19:27 43.133838 -123.348102 175 16920ft 306kts
21-Jun-17 19:28 43.049053 -123.341272 175 16920ft 306kts
21-Jun-17 19:29 42.964448 -123.334528 175 16921ft 305kts
21-Jun-17 19:30 42.880475 -123.327871 175 16917ft 305kts
21-Jun-17 19:31 42.797297 -123.321298 175 16917ft 305kts
21-Jun-17 19:32 42.712728 -123.314600 175 16945ft 305kts
21-Jun-17 19:33 42.628205 -123.307927 175 16945ft 305kts
21-Jun-17 19:34 42.544082 -123.301316 175 16951ft 304kts
21-Jun-17 19:35 42.459823 -123.294727 175 16946ft 304kts
21-Jun-17 19:36 42.375677 -123.288158 175 16946ft 304kts
21-Jun-17 19:37 42.291289 -123.281589 175 16946ft 304kts
21-Jun-17 19:38 42.206826 -123.275050 175 16946ft 304kts
21-Jun-17 19:39 42.122322 -123.268512 175 16848ft 306kts
21-Jun-17 19:40 42.037608 -123.261970 175 16842ft 304kts
21-Jun-17 19:41 41.953319 -123.255498 175 16839ft 304kts
21-Jun-17 19:42 41.871210 -123.249198 175 16836ft 304kts
21-Jun-17 19:43 41.787717 -123.242826 175 16832ft 304kts
21-Jun-17 19:44 41.703933 -123.236407 175 16809ft 304kts
21-Jun-17 19:45 41.619740 -123.230002 175 16809ft 304kts
21-Jun-17 19:46 41.537848 -123.223760 175 17275ft 295kts
21-Jun-17 19:47 41.455196 -123.217490 175 17278ft 301kts
21-Jun-17 19:48 41.371313 -123.211156 175 17250ft 304kts
21-Jun-17 19:49 41.287307 -123.206659 177 17197ft 305kts
21-Jun-17 19:50 41.202702 -123.203524 177 17196ft 304kts
21-Jun-17 19:51 41.117441 -123.200351 177 15844ft 309kts
21-Jun-17 19:52 41.031534 -123.197165 177 14263ft 308kts
21-Jun-17 19:53 40.947933 -123.194254 176 13195ft 286kts
21-Jun-17 19:54 40.873879 -123.191512 176 13192ft 265kts
21-Jun-17 19:55 40.801160 -123.188811 176 13195ft 259kts
21-Jun-17 19:56 40.732100 -123.186259 176 12710ft 246kts
21-Jun-17 19:57 40.669431 -123.183946 175 11073ft 212kts
21-Jun-17 19:58 40.613594 -123.181563 171 9180ft 200kts
21-Jun-17 19:59 40.597674 -123.128866 84 7902ft 147kts
21-Jun-17 20:00 40.578239 -123.090151 197 5803ft 163kts
21-Jun-17 20:01 40.550604 -123.130012 248 3681ft 133kts
21-Jun-17 20:02 40.547070 -123.176451 273 2324ft 121kts
21-Jun-17 20:03 40.546697 -123.188134 55 2312ft 0kts
21-Jun-17 20:04 40.546697 -123.188135 55 2312ft 0kts
21-Jun-17 20:05 40.547735 -123.179135 170 2320ft 0kts
21-Jun-17 20:06 40.547735 -123.179135 170 2320ft 0kts
21-Jun-17 20:07 40.547735 -123.179135 170 2320ft 0kts
21-Jun-17 20:08 40.547735 -123.179135 170 2320ft 0kts
21-Jun-17 20:09 40.547735 -123.179135 170 2320ft 0kts
21-Jun-17 20:10 40.547735 -123.179135 170 2320ft 0kts
21-Jun-17 20:11 40.547735 -123.179135 170 2320ft 0kts
21-Jun-17 20:12 40.547735 -123.179135 170 2320ft 0kts
21-Jun-17 20:13 40.547735 -123.179135 170 2320ft 0kts
21-Jun-17 20:14 40.547735 -123.179135 170 2320ft 0kts
21-Jun-17 20:15 40.547735 -123.179135 170 2320ft 0kts
21-Jun-17 20:16 40.547735 -123.179135 170 2320ft 0kts
21-Jun-17 20:17 40.547735 -123.179135 170 2320ft 0kts

Navigation Log

Ident Type
Flight plan parsing failed, navigation log unavailable